Time;durP1;ratioP1;P1;durP2;ratioP2;P2;SDS_P1;SDS_P2;PMS_P1;PMS_P2;Temp;Humidity;BMP_temperature;BMP_pressure;BME280_temperature;BME280_humidity;BME280_pressure;Samples;Min_cycle;Max_cycle;Signal;HPM_P1;HPM_P2
2023/06/01 00:01:01;;;;;;;5.17;1.77;;;12.10;99.90;;;;;;5055768;28;20091;-54
2023/06/01 00:03:29;;;;;;;5.68;2.22;;;12.10;99.90;;;;;;5055463;28;20049;-55
2023/06/01 00:05:56;;;;;;;5.25;1.60;;;12.10;99.90;;;;;;5055488;28;20049;-54
2023/06/01 00:08:22;;;;;;;6.68;2.00;;;12.00;99.90;;;;;;5054434;28;20531;-54
2023/06/01 00:10:48;;;;;;;4.93;1.60;;;12.00;99.90;;;;;;5037890;28;20045;-54
2023/06/01 00:13:15;;;;;;;4.15;1.75;;;12.00;99.90;;;;;;5055430;28;20049;-54
2023/06/01 00:15:40;;;;;;;7.63;1.60;;;12.00;99.90;;;;;;5055379;28;20045;-55
2023/06/01 00:18:08;;;;;;;5.03;1.70;;;12.00;99.90;;;;;;5055282;28;20128;-53
2023/06/01 00:20:34;;;;;;;5.93;1.95;;;12.00;99.90;;;;;;5055257;28;20053;-52
2023/06/01 00:23:00;;;;;;;4.10;1.63;;;12.00;99.90;;;;;;5053601;28;20408;-54
2023/06/01 00:25:26;;;;;;;5.97;1.88;;;12.00;99.90;;;;;;5053965;28;20049;-55
2023/06/01 00:27:52;;;;;;;5.07;2.05;;;12.00;99.90;;;;;;5055015;28;20159;-55
2023/06/01 00:30:18;;;;;;;5.13;1.90;;;12.00;99.90;;;;;;5055051;28;20045;-54
2023/06/01 00:32:43;;;;;;;6.60;2.10;;;12.00;99.90;;;;;;5054769;28;20051;-50
2023/06/01 00:35:09;;;;;;;5.53;1.37;;;11.90;99.90;;;;;;5054868;28;20045;-54
2023/06/01 00:37:35;;;;;;;8.27;2.30;;;11.90;99.90;;;;;;5054788;28;20272;-55
2023/06/01 00:40:00;;;;;;;5.50;1.80;;;11.90;99.90;;;;;;5054926;28;20491;-55
2023/06/01 00:42:26;;;;;;;5.47;2.10;;;11.90;99.90;;;;;;5054021;28;20390;-54
2023/06/01 00:44:53;;;;;;;5.10;1.90;;;11.90;99.90;;;;;;5054717;28;20049;-51
2023/06/01 00:47:19;;;;;;;6.97;2.60;;;11.90;99.90;;;;;;5054764;28;20357;-53
2023/06/01 00:49:46;;;;;;;4.50;2.17;;;11.90;99.90;;;;;;5054671;28;20053;-55
2023/06/01 00:52:13;;;;;;;5.25;1.92;;;11.90;99.90;;;;;;5054366;28;20040;-54
2023/06/01 00:54:38;;;;;;;4.22;1.88;;;11.90;99.90;;;;;;5053346;28;20389;-54
2023/06/01 00:57:06;;;;;;;6.25;2.30;;;11.90;99.90;;;;;;5054531;28;20045;-53
2023/06/01 00:59:33;;;;;;;6.18;2.20;;;11.80;99.90;;;;;;5054382;28;20127;-53
2023/06/01 01:01:59;;;;;;;5.35;1.90;;;11.80;99.90;;;;;;5054467;28;20053;-54
2023/06/01 01:04:28;;;;;;;4.73;1.80;;;11.90;99.90;;;;;;5054410;28;20045;-54
2023/06/01 01:07:09;;;;;;;4.85;2.00;;;11.90;99.90;;;;;;5054229;28;20333;-52
2023/06/01 01:09:54;;;;;;;7.38;2.05;;;11.90;99.90;;;;;;5054257;28;20056;-54
2023/06/01 01:12:40;;;;;;;5.10;1.92;;;11.90;99.90;;;;;;5054232;28;20052;-54
2023/06/01 01:15:25;;;;;;;5.45;2.00;;;11.90;99.90;;;;;;5053090;28;20062;-54
2023/06/01 01:17:57;;;;;;;5.03;1.90;;;11.90;99.90;;;;;;5054480;28;20445;-53
2023/06/01 01:20:28;;;;;;;7.20;2.25;;;11.90;99.90;;;;;;5054155;28;20056;-54
2023/06/01 01:23:30;;;;;;;5.32;2.28;;;11.90;99.90;;;;;;5053869;28;20057;-53
2023/06/01 01:26:18;;;;;;;5.30;1.92;;;11.90;99.90;;;;;;5012089;28;20054;-53
2023/06/01 01:28:53;;;;;;;6.22;2.22;;;11.90;99.90;;;;;;5051810;28;20381;-53
2023/06/01 01:31:23;;;;;;;6.28;2.15;;;11.90;99.90;;;;;;5053788;28;20115;-53
2023/06/01 01:33:52;;;;;;;6.35;2.38;;;11.90;99.90;;;;;;5053727;28;20040;-54
2023/06/01 01:36:19;;;;;;;7.93;2.65;;;12.00;99.90;;;;;;5053900;28;20060;-53
2023/06/01 01:38:44;;;;;;;5.65;2.17;;;12.00;99.90;;;;;;5052697;28;20045;-53
2023/06/01 01:41:10;;;;;;;6.22;1.88;;;11.90;99.90;;;;;;5053703;28;20056;-53
2023/06/01 01:43:37;;;;;;;7.27;1.97;;;11.90;99.90;;;;;;5053799;28;20118;-54
2023/06/01 01:46:26;;;;;;;7.65;2.30;;;11.90;99.90;;;;;;5053794;28;20049;-54
2023/06/01 01:49:06;;;;;;;5.93;1.98;;;11.90;99.90;;;;;;5054272;28;20107;-51
2023/06/01 01:51:48;;;;;;;6.20;1.92;;;11.90;99.90;;;;;;5054055;28;20052;-54
2023/06/01 01:54:14;;;;;;;6.38;1.95;;;11.90;99.90;;;;;;5053817;28;20049;-52
2023/06/01 01:56:41;;;;;;;5.03;1.90;;;11.90;99.90;;;;;;5052442;28;20049;-54
2023/06/01 01:59:07;;;;;;;5.82;1.90;;;11.80;99.90;;;;;;5053512;28;20080;-53
2023/06/01 02:01:33;;;;;;;6.63;2.47;;;11.80;99.90;;;;;;5053642;28;20392;-53
2023/06/01 02:04:03;;;;;;;7.55;2.13;;;11.80;99.90;;;;;;5053541;28;20045;-53
2023/06/01 02:06:29;;;;;;;5.28;1.67;;;11.90;99.90;;;;;;5053540;28;20124;-53
2023/06/01 02:08:55;;;;;;;5.22;1.80;;;11.80;99.90;;;;;;5053552;28;20170;-54
2023/06/01 02:11:21;;;;;;;4.90;1.48;;;11.80;99.90;;;;;;5053276;28;20167;-54
2023/06/01 02:13:47;;;;;;;4.30;1.63;;;11.80;99.90;;;;;;5053450;28;20045;-54
2023/06/01 02:16:13;;;;;;;4.05;1.40;;;11.80;99.90;;;;;;5053398;28;20324;-54
2023/06/01 02:18:39;;;;;;;3.55;1.30;;;11.80;99.90;;;;;;5053312;28;20115;-54
2023/06/01 02:21:05;;;;;;;5.13;1.50;;;11.80;99.90;;;;;;5053417;28;20049;-54
2023/06/01 02:23:31;;;;;;;3.35;1.23;;;11.80;99.90;;;;;;5051766;28;20496;-53
2023/06/01 02:25:56;;;;;;;4.33;1.80;;;11.80;99.90;;;;;;5053240;28;20056;-54
2023/06/01 02:28:22;;;;;;;5.23;1.67;;;11.80;99.90;;;;;;5051831;28;20099;-53
2023/06/01 02:30:48;;;;;;;4.23;1.37;;;11.80;99.90;;;;;;5054340;28;20099;-54
2023/06/01 02:33:13;;;;;;;2.47;1.17;;;11.80;99.90;;;;;;5057499;28;20431;-51
2023/06/01 02:35:39;;;;;;;4.63;1.60;;;11.80;99.90;;;;;;5056160;28;20446;-54
2023/06/01 02:38:05;;;;;;;3.00;1.20;;;11.80;99.90;;;;;;5057126;28;20037;-52
2023/06/01 02:40:31;;;;;;;4.27;2.20;;;11.80;99.90;;;;;;5057079;28;20049;-53
2023/06/01 02:42:56;;;;;;;4.20;1.33;;;11.80;99.90;;;;;;5057216;28;20484;-54
2023/06/01 02:45:22;;;;;;;6.73;1.63;;;11.80;99.90;;;;;;5055777;28;20404;-53
2023/06/01 02:47:48;;;;;;;3.17;1.53;;;11.80;99.90;;;;;;5056769;28;20081;-54
2023/06/01 02:50:13;;;;;;;6.07;1.77;;;11.70;99.90;;;;;;5056841;28;20045;-54
2023/06/01 02:52:39;;;;;;;4.90;1.40;;;11.70;99.90;;;;;;5056886;28;20040;-50
2023/06/01 02:55:06;;;;;;;4.05;1.52;;;11.70;99.90;;;;;;5056746;28;20129;-53
2023/06/01 02:57:31;;;;;;;5.70;1.77;;;11.70;99.90;;;;;;5057109;28;20191;-54
2023/06/01 02:59:57;;;;;;;5.13;1.73;;;11.70;99.90;;;;;;5056699;28;20524;-53
2023/06/01 03:02:23;;;;;;;7.10;1.60;;;11.70;99.90;;;;;;5039240;28;20053;-54
2023/06/01 03:04:48;;;;;;;3.93;1.40;;;11.70;99.90;;;;;;5056687;28;20048;-53
2023/06/01 03:07:14;;;;;;;4.87;1.70;;;11.80;99.90;;;;;;5056476;28;20507;-54
2023/06/01 03:09:40;;;;;;;5.10;1.52;;;11.70;99.90;;;;;;5056497;28;20084;-53
2023/06/01 03:12:06;;;;;;;5.03;1.73;;;11.80;99.90;;;;;;5055481;28;20045;-54
2023/06/01 03:14:32;;;;;;;;;;;11.80;99.90;;;;;;5056905;28;20048;-54
2023/06/01 03:16:58;;;;;;;6.15;1.80;;;11.80;99.90;;;;;;5055420;28;19974;-54
2023/06/01 03:19:23;;;;;;;7.60;2.00;;;11.80;99.90;;;;;;5056288;28;20049;-52
2023/06/01 03:21:49;;;;;;;5.43;1.83;;;11.80;99.90;;;;;;5055127;28;20136;-54
2023/06/01 03:24:15;;;;;;;6.40;1.83;;;11.80;99.90;;;;;;5055047;28;20484;-53
2023/06/01 03:26:41;;;;;;;5.43;1.90;;;11.80;99.90;;;;;;5056223;28;20076;-54
2023/06/01 03:29:06;;;;;;;4.55;2.00;;;11.80;99.90;;;;;;5056235;28;20037;-53
2023/06/01 03:31:34;;;;;;;4.03;1.70;;;11.80;99.90;;;;;;5056219;28;20582;-53
2023/06/01 03:34:01;;;;;;;5.75;1.50;;;11.80;99.90;;;;;;5055058;28;20044;-53
2023/06/01 03:36:27;;;;;;;;;;;11.80;99.90;;;;;;5056466;28;20048;-54
2023/06/01 03:38:53;;;;;;;4.93;2.00;;;11.70;99.90;;;;;;5056079;28;19924;-54
2023/06/01 03:41:19;;;;;;;5.50;2.23;;;11.70;99.90;;;;;;5055899;28;20048;-53
2023/06/01 03:43:45;;;;;;;6.22;2.20;;;11.80;99.90;;;;;;5053626;28;20049;-54
2023/06/01 03:46:11;;;;;;;7.23;2.30;;;11.70;99.90;;;;;;5056271;28;20067;-54
2023/06/01 03:48:37;;;;;;;6.68;1.48;;;11.80;99.90;;;;;;5055735;28;20086;-54
2023/06/01 03:51:03;;;;;;;3.63;1.40;;;11.70;99.90;;;;;;5055725;28;20048;-54
2023/06/01 03:53:31;;;;;;;6.82;1.83;;;11.70;99.90;;;;;;5055707;28;20056;-54
2023/06/01 03:55:57;;;;;;;5.45;1.92;;;11.70;99.90;;;;;;5054945;28;20059;-53
2023/06/01 03:58:23;;;;;;;5.63;2.10;;;11.70;99.90;;;;;;5055480;28;20045;-54
2023/06/01 04:00:49;;;;;;;6.00;2.00;;;11.60;99.90;;;;;;5055613;28;20290;-53
2023/06/01 04:03:15;;;;;;;5.53;1.38;;;11.60;99.90;;;;;;5055483;28;20500;-53
2023/06/01 04:05:41;;;;;;;4.05;1.42;;;11.60;99.90;;;;;;5055426;28;20088;-56
2023/06/01 04:08:08;;;;;;;4.65;1.55;;;11.60;99.90;;;;;;5055203;28;20124;-53
2023/06/01 04:10:34;;;;;;;7.00;1.90;;;11.60;99.90;;;;;;5055453;28;20152;-54
2023/06/01 04:13:00;;;;;;;4.77;2.03;;;11.50;99.90;;;;;;5055482;28;20132;-54
2023/06/01 04:15:25;;;;;;;3.70;1.73;;;11.60;99.90;;;;;;5037742;28;20085;-53
2023/06/01 04:17:51;;;;;;;4.57;1.80;;;11.60;99.90;;;;;;5055328;28;20044;-54
2023/06/01 04:20:17;;;;;;;5.33;1.97;;;11.50;99.90;;;;;;5055273;28;20275;-54
2023/06/01 04:22:45;;;;;;;6.50;2.00;;;11.60;99.90;;;;;;5055234;28;20106;-53
2023/06/01 04:25:16;;;;;;;4.22;1.70;;;11.60;99.90;;;;;;5054278;28;20096;-55
2023/06/01 04:27:48;;;;;;;5.07;1.90;;;11.60;99.90;;;;;;5054158;28;20049;-54
2023/06/01 04:30:15;;;;;;;6.05;1.80;;;11.60;99.90;;;;;;5055279;28;20049;-54
2023/06/01 04:32:44;;;;;;;5.95;1.77;;;11.50;99.90;;;;;;5054895;28;20124;-53
2023/06/01 04:35:10;;;;;;;6.60;1.90;;;11.60;99.90;;;;;;5054792;28;20052;-54
2023/06/01 04:37:39;;;;;;;5.90;1.92;;;11.60;99.90;;;;;;5054926;28;20037;-54
2023/06/01 04:40:09;;;;;;;5.45;2.25;;;11.60;99.90;;;;;;5054848;28;20056;-54
2023/06/01 04:42:51;;;;;;;7.65;2.38;;;11.60;99.90;;;;;;5054790;28;20040;-54
2023/06/01 04:45:18;;;;;;;5.78;2.05;;;11.60;99.90;;;;;;5054823;28;20052;-53
2023/06/01 04:47:47;;;;;;;3.78;1.60;;;11.70;99.90;;;;;;5054546;28;20084;-54
2023/06/01 04:50:15;;;;;;;6.32;1.90;;;11.60;99.90;;;;;;5054647;28;20049;-54
2023/06/01 04:52:41;;;;;;;5.57;1.63;;;11.60;99.90;;;;;;5054569;28;20055;-54
2023/06/01 04:55:08;;;;;;;;;;;11.70;99.90;;;;;;5054943;28;20045;-54
2023/06/01 04:57:35;;;;;;;8.00;1.77;;;11.60;99.90;;;;;;5054382;28;19990;-54
2023/06/01 05:00:03;;;;;;;3.33;1.50;;;11.70;99.90;;;;;;5054438;28;20049;-53
2023/06/01 05:02:29;;;;;;;4.40;1.73;;;11.60;99.90;;;;;;5053386;28;20128;-54
2023/06/01 05:04:55;;;;;;;4.30;1.20;;;11.70;99.90;;;;;;5053615;28;20099;-53
2023/06/01 05:07:21;;;;;;;3.63;1.20;;;11.60;99.90;;;;;;5054309;28;20041;-55
2023/06/01 05:09:48;;;;;;;2.72;0.98;;;11.70;99.90;;;;;;5054364;28;20055;-53
2023/06/01 05:12:13;;;;;;;2.90;1.08;;;11.60;99.90;;;;;;5054285;28;20092;-53
2023/06/01 05:14:39;;;;;;;2.63;0.90;;;11.60;99.90;;;;;;5052931;28;20095;-54
2023/06/01 05:17:05;;;;;;;3.20;1.25;;;11.60;99.90;;;;;;5054014;28;20051;-53
2023/06/01 05:19:31;;;;;;;2.80;1.10;;;11.60;99.90;;;;;;5054250;28;20045;-53
2023/06/01 05:21:56;;;;;;;2.80;1.10;;;11.70;99.90;;;;;;5053210;28;20133;-53
2023/06/01 05:24:22;;;;;;;4.27;1.40;;;11.60;99.90;;;;;;5054000;28;20064;-53
2023/06/01 05:26:48;;;;;;;3.00;1.10;;;11.70;99.90;;;;;;5053946;28;20053;-53
2023/06/01 05:29:13;;;;;;;3.00;0.97;;;11.60;99.90;;;;;;5053784;28;20076;-53
2023/06/01 05:31:40;;;;;;;3.33;1.20;;;11.70;99.90;;;;;;5052803;28;20051;-50
2023/06/01 05:34:06;;;;;;;2.75;1.02;;;11.60;99.90;;;;;;5054133;28;20048;-54
2023/06/01 05:36:31;;;;;;;2.27;1.10;;;11.60;99.90;;;;;;5053482;28;20408;-54
2023/06/01 05:38:58;;;;;;;4.30;1.20;;;11.60;99.90;;;;;;5053986;28;20040;-54
2023/06/01 05:41:25;;;;;;;3.95;1.38;;;11.60;99.90;;;;;;5052881;28;20098;-53
2023/06/01 05:43:51;;;;;;;3.63;1.33;;;11.60;99.90;;;;;;5053787;28;20053;-53
2023/06/01 05:46:17;;;;;;;3.38;1.02;;;11.70;99.90;;;;;;5052595;28;20095;-53
2023/06/01 05:48:42;;;;;;;2.83;0.93;;;11.70;99.90;;;;;;5053733;28;20080;-52
2023/06/01 05:51:08;;;;;;;2.73;0.90;;;11.70;99.90;;;;;;5053713;28;20118;-51
2023/06/01 05:53:34;;;;;;;4.03;1.30;;;11.70;99.90;;;;;;5052602;28;20037;-53
2023/06/01 05:55:59;;;;;;;2.03;0.60;;;11.70;99.90;;;;;;5052682;28;20049;-54
2023/06/01 05:58:25;;;;;;;2.27;0.77;;;11.70;99.90;;;;;;5053564;28;20045;-53
2023/06/01 06:00:51;;;;;;;2.20;0.80;;;11.70;99.90;;;;;;5053337;28;20562;-54
2023/06/01 06:03:17;;;;;;;2.57;0.80;;;11.70;99.90;;;;;;5053630;28;20098;-53
2023/06/01 06:05:42;;;;;;;2.93;0.67;;;11.70;99.90;;;;;;5052901;28;20396;-53
2023/06/01 06:08:10;;;;;;;2.63;0.77;;;11.70;99.90;;;;;;5053230;28;20037;-54
2023/06/01 06:10:36;;;;;;;2.00;0.70;;;11.70;99.90;;;;;;5053355;28;20174;-53
2023/06/01 06:13:01;;;;;;;3.47;1.30;;;11.70;99.90;;;;;;5053458;28;20128;-54
2023/06/01 06:15:27;;;;;;;2.97;0.73;;;11.70;99.90;;;;;;5053431;28;20110;-54
2023/06/01 06:17:52;;;;;;;1.50;0.50;;;11.70;99.90;;;;;;5053869;28;20056;-52
2023/06/01 06:20:21;;;;;;;2.83;0.83;;;11.70;99.90;;;;;;5053811;28;20067;-53
2023/06/01 06:22:52;;;;;;;2.58;0.70;;;11.70;99.90;;;;;;5053220;28;20060;-54
2023/06/01 06:25:19;;;;;;;2.03;0.60;;;11.70;99.90;;;;;;5053337;28;20053;-53
2023/06/01 06:27:45;;;;;;;;;;;11.70;99.90;;;;;;5052670;28;20045;-54
2023/06/01 06:30:11;;;;;;;2.20;0.80;;;11.70;99.90;;;;;;5053289;28;19920;-54
2023/06/01 06:32:37;;;;;;;3.08;0.98;;;11.70;99.90;;;;;;5053283;28;20049;-54
2023/06/01 06:35:02;;;;;;;2.57;0.87;;;11.70;99.90;;;;;;5053268;28;20476;-53
2023/06/01 06:37:29;;;;;;;2.15;0.70;;;11.80;99.90;;;;;;5053165;28;20045;-53
2023/06/01 06:39:55;;;;;;;1.85;0.47;;;11.80;99.90;;;;;;5053030;28;20045;-53
2023/06/01 06:42:21;;;;;;;2.90;0.80;;;11.80;99.90;;;;;;5053084;28;20045;-53
2023/06/01 06:44:47;;;;;;;2.83;0.88;;;11.80;99.90;;;;;;5053061;28;20102;-54
2023/06/01 06:47:15;;;;;;;3.97;1.20;;;11.80;99.90;;;;;;5053059;28;20388;-53
2023/06/01 06:49:41;;;;;;;2.92;1.08;;;11.80;99.90;;;;;;5053080;28;20457;-54
2023/06/01 06:52:08;;;;;;;3.35;1.27;;;11.80;99.90;;;;;;5051990;28;20123;-52
2023/06/01 06:54:38;;;;;;;4.05;1.35;;;11.80;99.90;;;;;;5053035;28;20079;-51
2023/06/01 06:57:04;;;;;;;4.30;1.52;;;11.80;99.90;;;;;;5052844;28;20048;-53
2023/06/01 06:59:30;;;;;;;3.83;1.33;;;11.80;99.90;;;;;;5051635;28;20075;-52
2023/06/01 07:01:56;;;;;;;4.73;1.30;;;11.80;99.90;;;;;;5052783;28;20049;-54
2023/06/01 07:04:21;;;;;;;3.47;1.10;;;11.90;99.90;;;;;;5052992;28;20048;-54
2023/06/01 07:06:47;;;;;;;2.40;0.97;;;11.90;99.90;;;;;;5052975;28;20045;-53
2023/06/01 07:09:13;;;;;;;2.77;0.87;;;11.90;99.90;;;;;;5052808;28;20068;-54
2023/06/01 07:11:42;;;;;;;4.07;1.23;;;11.90;99.90;;;;;;5052823;28;20040;-52
2023/06/01 07:14:08;;;;;;;2.97;0.80;;;11.90;99.90;;;;;;5051758;28;20487;-55
2023/06/01 07:16:34;;;;;;;2.88;0.93;;;12.00;99.90;;;;;;5052555;28;20049;-54
2023/06/01 07:19:00;;;;;;;5.07;0.97;;;12.00;99.90;;;;;;5056509;28;20041;-54
2023/06/01 07:21:25;;;;;;;4.13;1.17;;;12.00;99.90;;;;;;5056547;28;20048;-54
2023/06/01 07:23:51;;;;;;;4.20;1.35;;;12.00;99.90;;;;;;5056476;28;20052;-54
2023/06/01 07:26:18;;;;;;;3.13;1.10;;;12.00;99.90;;;;;;5056256;28;20534;-54
2023/06/01 07:28:44;;;;;;;6.20;1.30;;;12.00;99.90;;;;;;5056213;28;20295;-53
2023/06/01 07:31:09;;;;;;;4.68;1.15;;;12.10;99.90;;;;;;5056188;28;20055;-54
2023/06/01 07:33:38;;;;;;;5.23;1.20;;;12.10;99.90;;;;;;5056241;28;20090;-54
2023/06/01 07:36:06;;;;;;;4.00;1.27;;;12.10;99.90;;;;;;5056063;28;20488;-53
2023/06/01 07:38:32;;;;;;;2.85;1.08;;;12.10;99.90;;;;;;5056006;28;20071;-53
2023/06/01 07:40:58;;;;;;;3.65;0.90;;;12.10;99.90;;;;;;5055928;28;20470;-53
2023/06/01 07:43:24;;;;;;;2.53;0.85;;;12.10;99.90;;;;;;5056199;28;20044;-54
2023/06/01 07:45:50;;;;;;;2.67;0.60;;;12.10;99.90;;;;;;5054818;28;20052;-53
2023/06/01 07:48:16;;;;;;;3.13;0.93;;;12.10;99.90;;;;;;5055814;28;20041;-54
2023/06/01 07:50:41;;;;;;;4.00;1.25;;;12.00;99.90;;;;;;5055955;28;20161;-54
2023/06/01 07:53:07;;;;;;;2.90;0.90;;;12.00;99.90;;;;;;5055782;28;20052;-54
2023/06/01 07:55:34;;;;;;;2.83;0.70;;;12.00;99.90;;;;;;5055713;28;20060;-55
2023/06/01 07:58:00;;;;;;;2.53;0.73;;;12.00;99.90;;;;;;5055840;28;20068;-54
2023/06/01 08:00:26;;;;;;;3.67;0.90;;;12.00;99.90;;;;;;5038245;28;20469;-54
2023/06/01 08:02:52;;;;;;;3.17;1.08;;;12.00;99.90;;;;;;5055599;28;20838;-55
2023/06/01 08:05:18;;;;;;;2.00;0.75;;;12.00;99.90;;;;;;5055557;28;20063;-55
2023/06/01 08:07:45;;;;;;;4.47;1.35;;;12.00;99.90;;;;;;5055669;28;20507;-52
2023/06/01 08:10:13;;;;;;;3.95;1.20;;;12.00;99.90;;;;;;5055327;28;20040;-53
2023/06/01 08:12:40;;;;;;;4.18;1.38;;;12.00;99.90;;;;;;5055496;28;20049;-53
2023/06/01 08:15:06;;;;;;;4.00;1.17;;;12.00;99.90;;;;;;5055440;28;20057;-54
2023/06/01 08:17:32;;;;;;;5.70;1.40;;;12.00;99.90;;;;;;5055474;28;20053;-55
2023/06/01 08:19:57;;;;;;;3.75;1.10;;;12.10;99.90;;;;;;5055116;28;20573;-54
2023/06/01 08:22:24;;;;;;;4.37;1.43;;;12.10;99.90;;;;;;5054808;28;20084;-55
2023/06/01 08:24:52;;;;;;;4.50;1.42;;;12.10;99.90;;;;;;5055013;28;20492;-55
2023/06/01 08:27:23;;;;;;;3.78;1.33;;;12.10;99.90;;;;;;5055107;28;20136;-54
2023/06/01 08:29:49;;;;;;;4.53;1.30;;;12.10;99.90;;;;;;5054457;28;20045;-54
2023/06/01 08:32:16;;;;;;;6.63;1.73;;;12.20;99.90;;;;;;5055096;28;20053;-53
2023/06/01 08:34:46;;;;;;;4.93;1.30;;;12.20;99.90;;;;;;5054949;28;20059;-54
2023/06/01 08:37:13;;;;;;;5.95;1.67;;;12.10;99.90;;;;;;5053539;28;20484;-53
2023/06/01 08:39:38;;;;;;;;;;;12.10;99.90;;;;;;5055220;28;20124;-54
2023/06/01 08:42:48;;;;;;;4.75;1.10;;;12.10;99.90;;;;;;5055286;28;19967;-54
2023/06/01 08:45:14;;;;;;;5.43;1.30;;;12.10;99.90;;;;;;5054715;28;20099;-55
2023/06/01 08:47:41;;;;;;;4.05;1.27;;;12.10;99.90;;;;;;5053504;28;20053;-54
2023/06/01 08:50:09;;;;;;;3.45;1.10;;;12.10;99.90;;;;;;5053726;28;20057;-55
2023/06/01 08:52:37;;;;;;;7.05;1.52;;;12.10;99.90;;;;;;5054751;28;20098;-54
2023/06/01 08:55:04;;;;;;;7.40;1.10;;;12.10;99.90;;;;;;5054569;28;20049;-54
2023/06/01 08:57:31;;;;;;;4.43;1.40;;;12.10;99.90;;;;;;5053569;28;20378;-55
2023/06/01 08:59:58;;;;;;;3.30;1.10;;;12.20;99.90;;;;;;5053445;28;20565;-54
2023/06/01 09:02:25;;;;;;;3.45;1.08;;;12.20;99.90;;;;;;5054397;28;20056;-54
2023/06/01 09:04:52;;;;;;;;;;;12.20;99.90;;;;;;5054909;28;20396;-55
2023/06/01 09:07:18;;;;;;;8.68;1.55;;;12.20;99.90;;;;;;5053401;28;19920;-57
2023/06/01 09:09:45;;;;;;;5.50;1.48;;;12.20;99.90;;;;;;5053252;28;20041;-54
2023/06/01 09:12:24;;;;;;;3.33;1.10;;;12.20;99.90;;;;;;5054176;28;20488;-55
2023/06/01 09:14:51;;;;;;;4.72;0.90;;;12.20;99.90;;;;;;5054113;28;20041;-52
2023/06/01 09:17:23;;;;;;;4.53;0.90;;;12.20;99.90;;;;;;5053264;28;20098;-55
2023/06/01 09:19:55;;;;;;;4.03;1.05;;;12.20;99.90;;;;;;5054291;28;20041;-55
2023/06/01 09:22:21;;;;;;;5.45;1.13;;;12.20;99.90;;;;;;5053897;28;20399;-55
2023/06/01 09:24:59;;;;;;;4.38;1.27;;;12.20;99.90;;;;;;5054131;28;20049;-54
2023/06/01 09:27:26;;;;;;;4.10;1.52;;;12.20;99.90;;;;;;5053741;28;20045;-55
2023/06/01 09:29:56;;;;;;;4.45;1.48;;;12.20;99.90;;;;;;5054468;28;20408;-55
2023/06/01 09:32:21;;;;;;;5.28;1.00;;;12.20;99.90;;;;;;5054274;28;20128;-54
2023/06/01 09:34:47;;;;;;;4.63;1.27;;;12.20;99.90;;;;;;5052938;28;20091;-54
2023/06/01 09:37:13;;;;;;;4.07;1.30;;;12.20;99.90;;;;;;5053924;28;20114;-55
2023/06/01 09:39:39;;;;;;;6.13;1.58;;;12.20;99.90;;;;;;5053469;28;20057;-56
2023/06/01 09:42:08;;;;;;;4.22;1.15;;;12.30;99.90;;;;;;5053067;28;20049;-54
2023/06/01 09:44:37;;;;;;;4.07;1.38;;;12.30;99.90;;;;;;5054369;28;20128;-55
2023/06/01 09:47:05;;;;;;;3.20;1.20;;;12.30;99.90;;;;;;5053163;28;20061;-55
2023/06/01 09:49:32;;;;;;;5.30;1.10;;;12.30;99.90;;;;;;5053560;28;20051;-53
2023/06/01 09:52:04;;;;;;;4.45;1.17;;;12.30;99.90;;;;;;5053655;28;20049;-55
2023/06/01 09:54:38;;;;;;;3.58;1.02;;;12.40;99.90;;;;;;5053550;28;20094;-54
2023/06/01 09:57:05;;;;;;;3.38;1.50;;;12.40;99.90;;;;;;5053678;28;20045;-55
2023/06/01 09:59:43;;;;;;;4.20;0.82;;;12.40;99.90;;;;;;5053574;28;20048;-55
2023/06/01 10:02:31;;;;;;;4.63;1.05;;;12.40;99.90;;;;;;5053627;28;20055;-55
2023/06/01 10:05:00;;;;;;;3.75;1.10;;;12.50;99.90;;;;;;5053456;28;20091;-55
2023/06/01 10:07:27;;;;;;;3.22;1.25;;;12.50;99.90;;;;;;5053814;28;20396;-55
2023/06/01 10:09:58;;;;;;;4.05;1.80;;;12.60;99.90;;;;;;5053414;28;20049;-54
2023/06/01 10:12:25;;;;;;;4.95;1.48;;;12.60;99.90;;;;;;5053672;28;20049;-55
2023/06/01 10:14:51;;;;;;;4.18;1.70;;;12.60;99.90;;;;;;5053306;28;20515;-54
2023/06/01 10:17:20;;;;;;;4.43;1.33;;;12.60;99.90;;;;;;5053441;28;20602;-56
2023/06/01 10:19:46;;;;;;;3.45;1.35;;;12.60;99.90;;;;;;5053306;28;20052;-54
2023/06/01 10:22:12;;;;;;;4.97;1.70;;;12.60;99.90;;;;;;5053536;28;20045;-53
2023/06/01 10:24:42;;;;;;;3.17;1.23;;;12.60;99.90;;;;;;5053147;28;20098;-55
2023/06/01 10:27:23;;;;;;;3.63;1.30;;;12.60;99.90;;;;;;5053337;28;20044;-51
2023/06/01 10:29:51;;;;;;;3.70;1.35;;;12.70;99.90;;;;;;5053358;28;20500;-54
2023/06/01 10:32:48;;;;;;;2.92;1.05;;;12.60;99.90;;;;;;5053329;28;20087;-53
2023/06/01 10:35:26;;;;;;;3.53;1.02;;;12.70;99.90;;;;;;5053293;28;20053;-54
2023/06/01 10:38:09;;;;;;;4.20;1.20;;;12.70;99.90;;;;;;5053254;28;20052;-55
2023/06/01 10:40:39;;;;;;;4.38;1.42;;;12.80;99.90;;;;;;5053008;28;20056;-55
2023/06/01 10:43:06;;;;;;;6.28;1.40;;;12.80;99.90;;;;;;5053212;28;20099;-51
2023/06/01 10:45:35;;;;;;;3.28;1.27;;;12.90;99.90;;;;;;5053386;28;20130;-55
2023/06/01 10:48:05;;;;;;;3.05;1.08;;;12.90;99.90;;;;;;5052963;28;20052;-55
2023/06/01 10:50:31;;;;;;;4.40;1.40;;;12.90;99.90;;;;;;5052173;28;20053;-55
2023/06/01 10:53:34;;;;;;;4.47;1.10;;;13.00;99.90;;;;;;5055666;28;20041;-56
2023/06/01 10:56:27;;;;;;;5.20;1.38;;;12.90;99.90;;;;;;5056928;28;20510;-55
2023/06/01 10:59:13;;;;;;;5.18;1.48;;;12.90;99.90;;;;;;5054809;28;20504;-55
2023/06/01 11:01:40;;;;;;;2.33;0.80;;;12.90;99.90;;;;;;5055989;28;20063;-56
2023/06/01 11:04:07;;;;;;;2.95;1.17;;;12.90;99.90;;;;;;5055545;28;20537;-56
2023/06/01 11:06:37;;;;;;;;;;;12.90;99.90;;;;;;5057139;28;20131;-53
2023/06/01 11:09:10;;;;;;;5.72;1.35;;;12.90;99.90;;;;;;5056599;28;19921;-55
2023/06/01 11:11:50;;;;;;;2.95;1.10;;;12.90;99.90;;;;;;5056469;28;20056;-54
2023/06/01 11:14:29;;;;;;;2.78;0.88;;;12.90;99.90;;;;;;5056643;28;20044;-54
2023/06/01 11:16:56;;;;;;;6.13;1.33;;;12.90;99.90;;;;;;5056542;28;20092;-55
2023/06/01 11:19:26;;;;;;;4.93;1.33;;;12.90;99.90;;;;;;5055670;28;20557;-55
2023/06/01 11:22:03;;;;;;;3.53;1.00;;;12.90;99.90;;;;;;5056260;28;20488;-56
2023/06/01 11:24:34;;;;;;;3.85;1.20;;;12.90;99.90;;;;;;5056533;28;20061;-54
2023/06/01 11:27:04;;;;;;;6.18;1.23;;;12.90;99.90;;;;;;5056454;28;20053;-55
2023/06/01 11:29:31;;;;;;;2.78;1.05;;;12.90;99.90;;;;;;5056345;28;20476;-55
2023/06/01 11:31:59;;;;;;;4.55;1.48;;;12.90;99.90;;;;;;5056331;28;20049;-55
2023/06/01 11:34:39;;;;;;;4.45;1.17;;;13.00;99.90;;;;;;5056004;28;20126;-55
2023/06/01 11:37:05;;;;;;;4.70;1.30;;;13.00;99.90;;;;;;5056254;28;20049;-55
2023/06/01 11:39:32;;;;;;;5.97;1.40;;;13.00;99.90;;;;;;5056061;28;20049;-56
2023/06/01 11:42:16;;;;;;;2.72;1.17;;;13.00;99.90;;;;;;5056279;28;20122;-55
2023/06/01 11:44:44;;;;;;;4.22;1.67;;;13.00;99.90;;;;;;5055980;28;20088;-54
2023/06/01 11:47:11;;;;;;;7.65;1.60;;;13.00;99.90;;;;;;5055818;28;20041;-55
2023/06/01 11:49:48;;;;;;;;;;;13.00;99.90;;;;;;5056632;28;20055;-56
2023/06/01 11:52:15;;;;;;;4.13;1.20;;;12.90;99.90;;;;;;5055867;28;20291;-55
2023/06/01 11:54:41;;;;;;;3.85;1.30;;;12.90;99.90;;;;;;5054810;28;20049;-53
2023/06/01 11:57:07;;;;;;;3.33;1.10;;;12.90;99.90;;;;;;5055820;28;20052;-55
2023/06/01 11:59:41;;;;;;;4.78;1.08;;;12.90;99.90;;;;;;5055446;28;20091;-55
2023/06/01 12:02:26;;;;;;;4.57;1.17;;;12.90;99.90;;;;;;5055949;28;20131;-55
2023/06/01 12:05:01;;;;;;;4.35;1.52;;;13.00;99.90;;;;;;5053847;28;20049;-55
2023/06/01 12:07:27;;;;;;;5.55;1.70;;;13.00;99.90;;;;;;5054470;28;20512;-55
2023/06/01 12:09:54;;;;;;;11.30;2.00;;;12.90;99.90;;;;;;5055551;28;20049;-55
2023/06/01 12:12:24;;;;;;;6.13;1.90;;;12.80;99.90;;;;;;5055692;28;20060;-55
2023/06/01 12:14:51;;;;;;;3.70;1.42;;;12.80;99.90;;;;;;5055476;28;20094;-54
2023/06/01 12:17:17;;;;;;;5.70;1.48;;;12.70;99.90;;;;;;5055424;28;20467;-55
2023/06/01 12:19:49;;;;;;;5.22;1.20;;;12.70;99.90;;;;;;5055569;28;20053;-56
2023/06/01 12:22:16;;;;;;;5.88;1.45;;;12.70;99.90;;;;;;5055156;28;20051;-55
2023/06/01 12:24:44;;;;;;;4.95;1.35;;;12.80;99.90;;;;;;5053803;28;20527;-55
2023/06/01 12:27:15;;;;;;;4.53;1.48;;;12.80;99.90;;;;;;5055494;28;20057;-55
2023/06/01 12:29:42;;;;;;;4.25;1.70;;;12.80;99.90;;;;;;5055075;28;20095;-56
2023/06/01 12:32:09;;;;;;;9.10;2.05;;;12.80;99.90;;;;;;5055046;28;20056;-56
2023/06/01 12:34:39;;;;;;;5.85;2.13;;;12.80;99.90;;;;;;5053884;28;20048;-55
2023/06/01 12:37:18;;;;;;;4.53;1.35;;;12.70;99.90;;;;;;5054664;28;20622;-56
2023/06/01 12:39:55;;;;;;;5.60;2.22;;;12.70;99.90;;;;;;5054991;28;20041;-54
2023/06/01 12:42:38;;;;;;;4.25;1.70;;;12.70;99.90;;;;;;5055257;28;20049;-55
2023/06/01 12:45:05;;;;;;;5.47;1.50;;;12.70;99.90;;;;;;5054856;28;20511;-55
2023/06/01 12:47:44;;;;;;;5.55;1.80;;;12.70;99.90;;;;;;5053637;28;20084;-54
2023/06/01 12:50:12;;;;;;;5.63;1.95;;;12.70;99.90;;;;;;5055445;28;20400;-54
2023/06/01 12:52:39;;;;;;;4.53;1.30;;;12.70;99.90;;;;;;5054906;28;20080;-55
2023/06/01 12:55:06;;;;;;;3.72;1.30;;;12.80;99.90;;;;;;5037079;28;20094;-56